createdAt,value
2022-09-04T00:01:52.396Z,50.48
2022-09-04T00:04:35.685Z,50.72
2022-09-04T00:07:19.367Z,50.61
2022-09-04T00:10:04.215Z,50.52
2022-09-04T00:12:42.349Z,50.71
2022-09-04T00:15:19.712Z,50.91
2022-09-04T00:17:57.635Z,50.99
2022-09-04T00:20:37.480Z,51.20
2022-09-04T00:23:18.276Z,51.41
2022-09-04T00:25:59.311Z,51.39
2022-09-04T00:28:36.296Z,51.25
2022-09-04T00:31:19.424Z,51.53
2022-09-04T00:34:01.960Z,51.90
2022-09-04T00:36:36.301Z,52.06
2022-09-04T00:39:14.120Z,52.21
2022-09-04T00:41:59.438Z,52.24
2022-09-04T00:44:59.810Z,52.23
2022-09-04T00:47:58.966Z,52.77
2022-09-04T00:50:42.966Z,52.72
2022-09-04T00:53:35.867Z,52.80
2022-09-04T00:56:30.161Z,52.94
2022-09-04T00:59:16.629Z,53.44
2022-09-04T01:01:52.119Z,53.30
2022-09-04T01:04:42.041Z,53.66
2022-09-04T01:07:35.420Z,53.84
2022-09-04T01:10:41.978Z,54.37
2022-09-04T01:13:21.026Z,54.38
2022-09-04T01:16:01.639Z,54.66
2022-09-04T01:18:41.918Z,55.13
2022-09-04T01:21:51.580Z,55.37
2022-09-04T01:24:42.734Z,54.85
2022-09-04T01:27:23.209Z,54.93
2022-09-04T01:30:05.309Z,55.66
2022-09-04T01:32:54.538Z,55.93
2022-09-04T01:35:34.353Z,56.05
2022-09-04T01:38:16.619Z,55.85
2022-09-04T01:40:54.857Z,55.66
2022-09-04T01:43:27.188Z,56.00
2022-09-04T01:46:21.811Z,56.24
2022-09-04T01:49:00.403Z,56.46
2022-09-04T01:51:40.332Z,56.35
2022-09-04T01:54:37.539Z,56.59
2022-09-04T01:57:24.025Z,56.83
2022-09-04T02:00:08.101Z,56.97
2022-09-04T02:02:55.767Z,57.26
2022-09-04T02:05:38.624Z,57.66
2022-09-04T02:08:30.340Z,57.53
2022-09-04T02:11:08.852Z,57.79
2022-09-04T02:14:02.257Z,58.01
2022-09-04T02:16:43.642Z,58.15
2022-09-04T02:19:29.269Z,58.43
2022-09-04T02:22:07.822Z,58.25
2022-09-04T02:24:47.388Z,58.68
2022-09-04T02:27:28.865Z,58.92
2022-09-04T02:30:08.217Z,59.22
2022-09-04T02:32:47.431Z,59.49
2022-09-04T02:35:26.449Z,59.31
2022-09-04T02:38:11.972Z,59.47
2022-09-04T02:40:51.579Z,59.42
2022-09-04T02:43:37.116Z,59.87
2022-09-04T02:46:15.919Z,59.97
2022-09-04T02:49:03.551Z,60.36
2022-09-04T02:51:49.466Z,60.58
2022-09-04T02:54:34.440Z,60.62
2022-09-04T02:57:15.978Z,60.84
2022-09-04T03:00:05.016Z,60.97
2022-09-04T03:02:42.684Z,61.19
2022-09-04T03:05:20.738Z,61.19
2022-09-04T03:07:59.735Z,61.11
2022-09-04T03:10:37.997Z,61.49
2022-09-04T03:13:15.812Z,61.49
2022-09-04T03:15:51.635Z,61.92
2022-09-04T03:18:30.245Z,62.47
2022-09-04T03:21:09.221Z,62.36
2022-09-04T03:23:47.820Z,62.45
2022-09-04T03:26:24.439Z,63.12
2022-09-04T03:29:10.282Z,62.94
2022-09-04T03:31:52.135Z,62.96
2022-09-04T03:34:37.797Z,63.23
2022-09-04T03:37:26.252Z,63.81
2022-09-04T03:40:12.726Z,63.53
2022-09-04T03:42:56.446Z,63.60
2022-09-04T03:45:38.308Z,63.78
2022-09-04T03:48:19.437Z,63.85
2022-09-04T03:50:58.796Z,63.90
2022-09-04T03:53:39.397Z,64.12
2022-09-04T03:56:44.541Z,64.09
2022-09-04T03:59:29.335Z,64.61
2022-09-04T04:02:12.345Z,64.66
2022-09-04T04:05:06.778Z,64.98
2022-09-04T04:07:47.034Z,65.27
2022-09-04T04:10:33.662Z,65.57
2022-09-04T04:13:37.886Z,65.35
2022-09-04T04:16:25.974Z,65.91
2022-09-04T04:19:12.076Z,65.73
2022-09-04T04:21:56.034Z,65.49
2022-09-04T04:24:48.276Z,65.72
2022-09-04T04:27:36.100Z,66.08
2022-09-04T04:30:14.496Z,66.10
2022-09-04T04:33:08.198Z,66.69
2022-09-04T04:35:50.515Z,66.53
2022-09-04T04:38:34.465Z,66.18
2022-09-04T04:41:21.567Z,66.38
2022-09-04T04:44:08.049Z,66.51
2022-09-04T04:46:55.488Z,66.92
2022-09-04T04:49:49.177Z,67.09
2022-09-04T04:52:46.079Z,67.04
2022-09-04T04:55:31.413Z,67.20
2022-09-04T04:58:30.094Z,67.07
2022-09-04T05:01:09.759Z,67.16
2022-09-04T05:03:56.082Z,67.12
2022-09-04T05:06:37.538Z,67.44
2022-09-04T05:09:21.249Z,67.95
2022-09-04T05:12:02.296Z,67.95
2022-09-04T05:14:49.224Z,67.68
2022-09-04T05:17:31.119Z,67.68
2022-09-04T05:20:21.628Z,67.68
2022-09-04T05:23:05.658Z,68.03
2022-09-04T05:25:46.862Z,68.20
2022-09-04T05:28:32.668Z,68.46
2022-09-04T05:31:21.043Z,68.15
2022-09-04T05:34:03.505Z,67.99
2022-09-04T05:36:45.918Z,68.84
2022-09-04T05:39:27.549Z,68.58
2022-09-04T05:42:39.277Z,68.19
2022-09-04T05:45:23.889Z,68.67
2022-09-04T05:48:05.242Z,68.52
2022-09-04T05:50:55.363Z,68.37
2022-09-04T05:53:43.159Z,68.31
2022-09-04T05:56:33.371Z,68.51
2022-09-04T05:59:27.716Z,68.25
2022-09-04T06:02:17.728Z,68.65
2022-09-04T06:05:19.115Z,68.61
2022-09-04T06:08:00.280Z,68.17
2022-09-04T06:10:45.072Z,68.02
2022-09-04T06:13:44.009Z,68.09
2022-09-04T06:16:32.799Z,67.94
2022-09-04T06:19:30.035Z,67.89
2022-09-04T06:22:25.718Z,67.76
2022-09-04T06:25:25.482Z,67.72
2022-09-04T06:28:25.932Z,67.94
2022-09-04T06:31:09.761Z,67.79
2022-09-04T06:34:03.998Z,67.67
2022-09-04T06:37:05.441Z,67.87
2022-09-04T06:39:52.016Z,67.91
2022-09-04T06:42:37.392Z,67.88
2022-09-04T06:45:26.558Z,67.61
2022-09-04T06:48:10.404Z,67.77
2022-09-04T06:50:53.957Z,67.51
2022-09-04T06:53:39.272Z,67.16
2022-09-04T06:56:24.737Z,67.08
2022-09-04T06:59:09.369Z,67.14
2022-09-04T07:01:50.552Z,66.94
2022-09-04T07:04:38.367Z,66.84
2022-09-04T07:07:19.393Z,66.89
2022-09-04T07:09:59.907Z,66.62
2022-09-04T07:13:09.908Z,66.68
2022-09-04T07:16:15.750Z,66.44
2022-09-04T07:19:03.468Z,66.12
2022-09-04T07:21:44.167Z,66.08
2022-09-04T07:24:43.746Z,65.84
2022-09-04T07:27:24.361Z,65.34
2022-09-04T07:30:03.441Z,65.35
2022-09-04T07:32:41.751Z,65.14
2022-09-04T07:35:20.185Z,64.93
2022-09-04T07:37:58.703Z,64.40
2022-09-04T07:40:38.406Z,64.50
2022-09-04T07:43:20.408Z,64.51
2022-09-04T07:46:05.498Z,64.19
2022-09-04T07:48:43.909Z,64.21
2022-09-04T07:51:19.816Z,63.82
2022-09-04T07:54:25.359Z,63.30
2022-09-04T07:57:18.091Z,63.17
2022-09-04T08:00:02.561Z,63.41
2022-09-04T08:03:04.542Z,63.24
2022-09-04T08:05:41.279Z,63.13
2022-09-04T08:08:29.652Z,62.93
2022-09-04T08:11:15.421Z,62.59
2022-09-04T08:14:13.763Z,62.57
2022-09-04T08:16:56.658Z,62.45
2022-09-04T08:19:34.551Z,62.03
2022-09-04T08:22:10.414Z,62.12
2022-09-04T08:25:10.621Z,62.09
2022-09-04T08:28:01.552Z,61.63
2022-09-04T08:30:41.020Z,61.51
2022-09-04T08:33:39.205Z,66.97
2022-09-04T08:36:25.296Z,62.13
2022-09-04T08:39:07.618Z,61.55
2022-09-04T08:42:20.229Z,61.39
2022-09-04T08:45:16.526Z,60.91
2022-09-04T08:48:19.283Z,61.44
2022-09-04T08:51:17.126Z,61.33
2022-09-04T08:54:31.312Z,60.18
2022-09-04T08:57:27.691Z,59.41
2022-09-04T09:00:12.579Z,59.22
2022-09-04T09:03:08.516Z,58.74
2022-09-04T09:06:21.199Z,58.86
2022-09-04T09:09:25.418Z,58.27
2022-09-04T09:12:40.759Z,57.64
2022-09-04T09:15:41.760Z,56.93
2022-09-04T09:18:37.106Z,57.01
2022-09-04T09:21:23.704Z,56.90
2022-09-04T09:24:34.875Z,56.63
2022-09-04T09:27:28.564Z,56.10
2022-09-04T09:30:09.842Z,55.12
2022-09-04T09:33:25.386Z,54.87
2022-09-04T09:36:36.676Z,54.30
2022-09-04T09:39:44.475Z,54.47
2022-09-04T09:42:55.488Z,53.09
2022-09-04T09:45:52.549Z,52.32
2022-09-04T09:48:59.427Z,52.43
2022-09-04T09:52:05.571Z,52.39
2022-09-04T09:55:07.503Z,52.09
2022-09-04T09:58:09.083Z,51.56
2022-09-04T10:00:57.164Z,50.56
2022-09-04T10:03:55.936Z,50.05
2022-09-04T10:07:10.526Z,49.76
2022-09-04T10:10:19.945Z,49.66
2022-09-04T10:13:27.217Z,49.04
2022-09-04T10:16:20.648Z,48.46
2022-09-04T10:19:30.303Z,47.69
2022-09-04T10:22:20.037Z,47.23
2022-09-04T10:25:25.084Z,45.95
2022-09-04T10:28:20.325Z,44.67
2022-09-04T10:31:37.575Z,43.80
2022-09-04T10:34:25.047Z,42.62
2022-09-04T10:37:18.043Z,41.64
2022-09-04T10:40:20.799Z,41.31
2022-09-04T10:43:09.695Z,41.68
2022-09-04T10:45:46.766Z,41.49
2022-09-04T10:48:53.905Z,40.55
2022-09-04T10:51:49.650Z,40.83
2022-09-04T10:54:48.123Z,40.17
2022-09-04T10:57:39.553Z,38.41
2022-09-04T11:00:14.377Z,38.46
2022-09-04T11:03:13.903Z,37.46
2022-09-04T11:06:15.862Z,37.57
2022-09-04T11:09:18.339Z,37.80
2022-09-04T11:12:09.484Z,38.18
2022-09-04T11:15:27.645Z,37.87
2022-09-04T11:18:17.750Z,37.82
2022-09-04T11:21:22.920Z,37.90
2022-09-04T11:24:35.329Z,36.58
2022-09-04T11:27:40.165Z,35.93
2022-09-04T11:30:20.437Z,36.43
2022-09-04T11:33:37.260Z,37.61
2022-09-04T11:36:50.642Z,38.36
2022-09-04T11:39:33.383Z,37.84
2022-09-04T11:42:33.894Z,37.83
2022-09-04T11:45:33.443Z,37.68
2022-09-04T11:48:41.176Z,37.94
2022-09-04T11:51:39.539Z,37.89
2022-09-04T11:54:38.069Z,37.37
2022-09-04T11:57:17.494Z,37.06
2022-09-04T12:00:07.558Z,36.65
2022-09-04T12:03:06.294Z,36.10
2022-09-04T12:05:53.045Z,36.41
2022-09-04T12:08:51.975Z,36.83
2022-09-04T12:12:11.079Z,36.55
2022-09-04T12:15:22.309Z,37.30
2022-09-04T12:18:21.186Z,37.88
2022-09-04T12:21:21.269Z,38.01
2022-09-04T12:24:14.062Z,37.96
2022-09-04T12:27:13.908Z,37.64
2022-09-04T12:30:06.268Z,36.89
2022-09-04T12:32:55.486Z,36.02
2022-09-04T12:35:44.621Z,35.84
2022-09-04T12:38:37.813Z,36.21
2022-09-04T12:41:10.243Z,36.28
2022-09-04T12:43:56.605Z,36.61
2022-09-04T12:46:50.459Z,36.53
2022-09-04T12:50:10.396Z,37.02
2022-09-04T12:52:57.480Z,36.14
2022-09-04T12:55:36.306Z,36.02
2022-09-04T12:58:21.486Z,35.86
2022-09-04T13:01:10.635Z,35.90
2022-09-04T13:03:52.497Z,35.66
2022-09-04T13:06:35.455Z,35.59
2022-09-04T13:09:19.644Z,35.84
2022-09-04T13:12:04.216Z,36.68
2022-09-04T13:15:19.387Z,36.77
2022-09-04T13:18:00.505Z,37.53
2022-09-04T13:20:43.866Z,37.77
2022-09-04T13:23:42.803Z,37.90
2022-09-04T13:26:34.878Z,38.08
2022-09-04T13:29:17.342Z,38.15
2022-09-04T13:32:26.592Z,38.15
2022-09-04T13:35:15.982Z,38.04
2022-09-04T13:38:08.555Z,38.12
2022-09-04T13:41:09.554Z,38.03
2022-09-04T13:44:09.371Z,38.44
2022-09-04T13:46:45.204Z,38.68
2022-09-04T13:49:24.207Z,37.96
2022-09-04T13:52:02.335Z,37.54
2022-09-04T13:54:40.786Z,36.91
2022-09-04T13:57:17.675Z,36.40
2022-09-04T13:59:52.014Z,36.53
2022-09-04T14:02:27.708Z,36.95
2022-09-04T14:05:07.091Z,37.23
2022-09-04T14:07:45.292Z,37.12
2022-09-04T14:10:21.893Z,37.35
2022-09-04T14:13:11.547Z,37.31
2022-09-04T14:16:01.912Z,37.44
2022-09-04T14:18:55.903Z,37.28
2022-09-04T14:21:42.606Z,36.32
2022-09-04T14:24:25.071Z,36.16
2022-09-04T14:27:02.001Z,36.02
2022-09-04T14:29:46.894Z,36.08
2022-09-04T14:32:33.109Z,36.18
2022-09-04T14:35:17.021Z,36.78
2022-09-04T14:38:07.429Z,36.49
2022-09-04T14:40:47.013Z,36.09
2022-09-04T14:43:32.637Z,35.64
2022-09-04T14:46:16.297Z,35.23
2022-09-04T14:49:01.111Z,34.97
2022-09-04T14:51:40.003Z,34.83
2022-09-04T14:54:18.301Z,34.09
2022-09-04T14:56:54.210Z,34.33
2022-09-04T14:59:33.174Z,34.08
2022-09-04T15:02:23.722Z,34.49
2022-09-04T15:05:03.146Z,34.30
2022-09-04T15:08:06.840Z,34.01
2022-09-04T15:10:49.991Z,34.37
2022-09-04T15:13:39.055Z,34.36
2022-09-04T15:16:20.545Z,34.29
2022-09-04T15:19:08.605Z,34.24
2022-09-04T15:21:51.608Z,33.79
2022-09-04T15:24:28.526Z,33.60
2022-09-04T15:27:12.771Z,33.76
2022-09-04T15:30:03.392Z,33.73
2022-09-04T15:32:41.840Z,33.63
2022-09-04T15:35:22.944Z,33.88
2022-09-04T15:38:08.042Z,33.93
2022-09-04T15:41:12.628Z,34.60
2022-09-04T15:43:44.477Z,35.17
2022-09-04T15:46:25.251Z,35.30
2022-09-04T15:49:14.040Z,35.42
2022-09-04T15:51:51.922Z,35.86
2022-09-04T15:54:31.451Z,35.83
2022-09-04T15:57:14.617Z,35.69
2022-09-04T15:59:53.417Z,35.52
2022-09-04T16:02:36.409Z,36.04
2022-09-04T16:05:23.095Z,35.87
2022-09-04T16:08:05.391Z,35.83
2022-09-04T16:10:53.299Z,35.34
2022-09-04T16:13:54.063Z,35.75
2022-09-04T16:16:35.704Z,35.78
2022-09-04T16:19:15.933Z,36.12
2022-09-04T16:21:55.443Z,36.67
2022-09-04T16:24:35.799Z,36.81
2022-09-04T16:27:13.064Z,37.09
2022-09-04T16:29:51.137Z,37.21
2022-09-04T16:32:27.292Z,37.50
2022-09-04T16:35:04.965Z,41.82
2022-09-04T16:37:43.185Z,38.34
2022-09-04T16:40:31.369Z,37.97
2022-09-04T16:43:17.638Z,38.25
2022-09-04T16:46:07.109Z,38.34
2022-09-04T16:48:47.993Z,38.48
2022-09-04T16:51:41.334Z,38.65
2022-09-04T16:54:28.646Z,39.14
2022-09-04T16:57:13.661Z,39.45
2022-09-04T16:59:50.972Z,39.61
2022-09-04T17:02:36.309Z,39.77
2022-09-04T17:05:21.530Z,39.98
2022-09-04T17:08:05.888Z,40.18
2022-09-04T17:10:46.607Z,40.60
2022-09-04T17:13:27.695Z,40.81
2022-09-04T17:16:05.099Z,41.33
2022-09-04T17:18:41.029Z,41.62
2022-09-04T17:24:25.284Z,41.84
2022-09-04T17:29:08.245Z,42.91
2022-09-04T17:29:17.346Z,42.03
2022-09-04T17:30:40.233Z,42.84
2022-09-04T17:36:24.979Z,45.08
2022-09-04T17:40:48.267Z,44.53
2022-09-04T17:40:53.290Z,43.93
2022-09-04T17:42:21.730Z,45.01
2022-09-04T17:44:56.910Z,44.58
2022-09-04T17:47:41.683Z,43.95
2022-09-04T17:50:17.641Z,44.74
2022-09-04T17:53:01.752Z,45.06
2022-09-04T17:55:38.770Z,45.55
2022-09-04T17:58:33.224Z,45.13
2022-09-04T18:01:14.343Z,45.47
2022-09-04T18:04:20.661Z,45.83
2022-09-04T18:07:39.627Z,45.59
2022-09-04T18:10:08.622Z,45.78
2022-09-04T18:12:47.096Z,45.87
2022-09-04T18:15:33.899Z,45.98
2022-09-04T18:18:14.187Z,46.28
2022-09-04T18:20:52.217Z,46.27
2022-09-04T18:23:51.944Z,46.43
2022-09-04T18:26:40.045Z,47.09
2022-09-04T18:31:44.346Z,47.23
2022-09-04T18:37:19.632Z,48.17
2022-09-04T18:37:25.486Z,47.45
2022-09-04T18:39:08.872Z,47.70
2022-09-04T18:50:25.101Z,48.16
2022-09-04T18:50:31.400Z,47.93
2022-09-04T18:50:38.909Z,48.10
2022-09-04T18:51:19.440Z,48.06
2022-09-04T18:53:57.446Z,48.21
2022-09-04T18:56:34.174Z,48.58
2022-09-04T18:59:12.892Z,48.27
2022-09-04T19:01:50.417Z,48.76
2022-09-04T19:04:47.842Z,48.64
2022-09-04T19:07:31.758Z,49.19
2022-09-04T19:10:26.359Z,48.66
2022-09-04T19:13:08.243Z,49.99
2022-09-04T19:16:04.250Z,49.31
2022-09-04T19:18:48.240Z,49.64
2022-09-04T19:21:36.305Z,49.15
2022-09-04T19:24:22.267Z,50.10
2022-09-04T19:27:27.318Z,50.08
2022-09-04T19:30:18.585Z,50.58
2022-09-04T19:33:04.683Z,50.55
2022-09-04T19:35:49.801Z,50.07
2022-09-04T19:45:56.555Z,50.32
2022-09-04T19:46:00.060Z,50.06
2022-09-04T19:46:14.941Z,50.18
2022-09-04T19:47:33.590Z,50.09
2022-09-04T19:53:19.182Z,51.13
2022-09-04T19:53:34.262Z,50.68
2022-09-04T19:56:22.590Z,50.67
2022-09-04T19:59:01.665Z,50.60
2022-09-04T20:01:43.921Z,50.48
2022-09-04T20:04:30.106Z,51.07
2022-09-04T20:07:05.801Z,51.14
2022-09-04T20:09:43.276Z,51.61
2022-09-04T20:12:25.279Z,51.43
2022-09-04T20:15:02.735Z,50.96
2022-09-04T20:17:47.642Z,51.18
2022-09-04T20:20:23.062Z,51.48
2022-09-04T20:23:00.001Z,51.23
2022-09-04T20:25:42.776Z,51.06
2022-09-04T20:28:27.405Z,51.23
2022-09-04T20:31:28.444Z,51.58
2022-09-04T20:34:20.412Z,50.89
2022-09-04T20:36:59.328Z,51.76
2022-09-04T20:39:41.103Z,51.96
2022-09-04T20:42:20.772Z,52.41
2022-09-04T20:46:19.748Z,52.25
2022-09-04T20:52:42.529Z,53.13
2022-09-04T20:53:05.901Z,52.30
2022-09-04T20:53:59.249Z,52.33
2022-09-04T20:58:43.747Z,52.47
2022-09-04T21:03:09.236Z,52.76
2022-09-04T21:03:23.994Z,53.09
2022-09-04T21:06:07.411Z,53.35
2022-09-04T21:08:47.633Z,52.64
2022-09-04T21:11:40.962Z,53.51
2022-09-04T21:14:20.333Z,53.80
2022-09-04T21:17:33.599Z,53.19
2022-09-04T21:20:33.895Z,52.97
2022-09-04T21:23:28.290Z,52.92
2022-09-04T21:26:16.302Z,53.76
2022-09-04T21:29:10.665Z,53.46
2022-09-04T21:31:58.039Z,52.64
2022-09-04T21:34:49.721Z,53.03
2022-09-04T21:37:29.747Z,53.19
2022-09-04T21:40:49.797Z,52.89
2022-09-04T21:43:43.659Z,52.54
2022-09-04T21:46:38.709Z,52.29
2022-09-04T21:49:26.574Z,52.41
2022-09-04T21:52:20.060Z,52.46
2022-09-04T21:57:25.902Z,52.40
2022-09-04T22:02:26.173Z,52.65
2022-09-04T22:02:49.371Z,52.92
2022-09-04T22:04:28.739Z,53.07
2022-09-04T22:11:23.442Z,53.08
2022-09-04T22:13:38.522Z,52.74
2022-09-04T22:13:49.429Z,52.80
2022-09-04T22:16:41.971Z,52.72
2022-09-04T22:19:32.057Z,52.68
2022-09-04T22:22:18.995Z,52.59
2022-09-04T22:25:06.900Z,52.60
2022-09-04T22:28:15.405Z,53.31
2022-09-04T22:31:11.627Z,53.06
2022-09-04T22:34:16.163Z,53.26
2022-09-04T22:37:18.199Z,53.31
2022-09-04T22:40:09.583Z,53.14
2022-09-04T22:42:51.600Z,53.26
2022-09-04T22:45:53.319Z,52.88
2022-09-04T22:49:08.020Z,53.36
2022-09-04T22:52:00.859Z,52.96
2022-09-04T22:54:45.443Z,53.36
2022-09-04T22:57:24.827Z,54.00
2022-09-04T23:00:07.675Z,53.52
2022-09-04T23:03:09.208Z,53.72
2022-09-04T23:07:27.999Z,53.77
2022-09-04T23:13:44.859Z,53.67
2022-09-04T23:13:51.185Z,53.36
2022-09-04T23:15:59.267Z,53.14
2022-09-04T23:22:10.031Z,53.27
2022-09-04T23:26:42.858Z,53.51
2022-09-04T23:26:47.343Z,53.13
2022-09-04T23:28:31.781Z,53.68
2022-09-04T23:31:29.089Z,53.91
2022-09-04T23:34:44.083Z,53.65
2022-09-04T23:38:00.690Z,53.76
2022-09-04T23:40:54.772Z,54.03
2022-09-04T23:44:08.232Z,53.98
2022-09-04T23:47:02.393Z,53.87
2022-09-04T23:49:59.582Z,53.87
2022-09-04T23:53:02.109Z,53.77
2022-09-04T23:56:08.443Z,53.94
2022-09-04T23:59:27.664Z,53.54
